Time;durP1;ratioP1;P1;durP2;ratioP2;P2;SDS_P1;SDS_P2;PMS_P1;PMS_P2;Temp;Humidity;BMP_temperature;BMP_pressure;BME280_temperature;BME280_humidity;BME280_pressure;Samples;Min_cycle;Max_cycle;Signal;HPM_P1;HPM_P2
2023/05/25 00:00:06;;;;;;;;;;;15.40;91.60;15.60;99489.00;;;;339286;28;82634;-94
2023/05/25 00:00:19;;;;;;;;;;;15.40;91.50;15.60;99496.00;;;;335021;28;89565;-95
2023/05/25 00:00:32;;;;;;;;;;;15.40;91.50;15.60;99487.00;;;;336645;28;82576;-95
2023/05/25 00:00:43;;;;;;;;;;;15.40;91.50;15.60;99488.00;;;;336716;28;89189;-95
2023/05/25 00:01:12;;;;;;;;;;;15.40;91.70;15.60;99494.00;;;;336648;28;82616;-95
2023/05/25 00:01:25;;;;;;;;;;;15.40;91.70;15.50;99489.00;;;;338850;28;90079;-95
2023/05/25 00:01:37;;;;;;;;;;;15.40;91.60;15.60;99493.00;;;;338072;28;82573;-95
2023/05/25 00:01:49;;;;;;;;;;;15.40;91.60;15.60;99482.00;;;;335195;29;90236;-95
2023/05/25 00:02:03;;;;;;;;;;;15.40;91.70;15.60;99487.00;;;;336660;28;82454;-95
2023/05/25 00:02:15;;;;;;;;;;;15.40;91.60;15.50;99490.00;;;;338939;28;90628;-95
2023/05/25 00:02:32;;;;;;;;;;;15.30;91.60;15.50;99496.00;;;;339577;28;82468;-94
2023/05/25 00:02:47;;;;;;;;;;;15.30;91.60;15.60;99490.00;;;;337691;28;89436;-96
2023/05/25 00:02:59;;;;;;;;;;;15.40;91.70;15.50;99491.00;;;;335517;28;82535;-95
2023/05/25 00:03:11;;;;;;;;;;;15.30;91.60;15.50;99492.00;;;;338950;28;90573;-95
2023/05/25 00:03:26;;;;;;;;;;;15.40;91.70;15.60;99494.00;;;;337110;28;82650;-95
2023/05/25 00:03:41;;;;;;;;;;;15.30;91.60;15.60;99483.00;;;;337246;28;91379;-95
2023/05/25 00:03:54;;;;;;;;;;;15.30;91.60;15.60;99484.00;;;;336349;29;82576;-96
2023/05/25 00:04:09;;;;;;;;;;;15.30;91.60;15.50;99485.00;;;;335771;28;89657;-96
2023/05/25 00:04:25;;;;;;;;;;;15.30;91.60;15.60;99487.00;;;;336492;29;82566;-95
2023/05/25 00:04:37;;;;;;;;;;;15.30;91.60;15.60;99479.00;;;;337434;28;90078;-96
2023/05/25 00:04:50;;;;;;;;;;;15.40;91.70;15.60;99486.00;;;;340202;28;82552;-96
2023/05/25 00:05:03;;;;;;;;;;;15.30;91.60;15.50;99492.00;;;;338354;28;88929;-96
2023/05/25 00:05:17;;;;;;;;;;;15.30;91.70;15.50;99484.00;;;;336427;28;82564;-95
2023/05/25 00:05:29;;;;;;;;;;;15.30;91.70;15.50;99489.00;;;;336376;29;89197;-95
2023/05/25 00:05:42;;;;;;;;;;;15.30;91.70;15.50;99485.00;;;;336554;29;82653;-95
2023/05/25 00:05:55;;;;;;;;;;;15.30;91.70;15.60;99488.00;;;;338562;28;90623;-95
2023/05/25 00:06:09;;;;;;;;;;;15.30;91.70;15.50;99479.00;;;;339252;28;82574;-96
2023/05/25 00:06:21;;;;;;;;;;;15.30;91.60;15.50;99490.00;;;;337621;28;90217;-96
2023/05/25 00:06:36;;;;;;;;;;;15.30;91.70;15.50;99480.00;;;;338995;28;82531;-96
2023/05/25 00:06:48;;;;;;;;;;;15.30;91.60;15.50;99483.00;;;;338632;28;90584;-94
2023/05/25 00:07:00;;;;;;;;;;;15.30;91.80;15.50;99492.00;;;;337630;28;82576;-95
2023/05/25 00:07:12;;;;;;;;;;;15.30;91.80;15.50;99492.00;;;;339798;28;89387;-95
2023/05/25 00:07:24;;;;;;;;;;;15.30;91.80;15.60;99480.00;;;;339699;28;82561;-94
2023/05/25 00:07:36;;;;;;;;;;;15.30;91.80;15.50;99498.00;;;;339523;28;89708;-95
2023/05/25 00:07:48;;;;;;;;;;;15.30;91.80;15.50;99491.00;;;;342564;28;82476;-96
2023/05/25 00:08:00;;;;;;;;;;;15.30;91.80;15.50;99482.00;;;;341907;28;90402;-95
2023/05/25 00:08:12;;;;;;;;;;;15.30;91.80;15.50;99486.00;;;;338301;28;83521;-96
2023/05/25 00:08:24;;;;;;;;;;;15.30;91.80;15.50;99491.00;;;;337989;28;89588;-95
2023/05/25 00:08:39;;;;;;;;;;;15.30;91.80;15.50;99482.00;;;;338301;28;82500;-96
2023/05/25 00:08:54;;;;;;;;;;;15.30;91.70;15.50;99483.00;;;;339453;28;89044;-95
2023/05/25 00:09:06;;;;;;;;;;;15.30;91.70;15.50;99489.00;;;;341020;28;82269;-94
2023/05/25 00:09:18;;;;;;;;;;;15.30;91.70;15.50;99487.00;;;;340403;28;89373;-95
2023/05/25 00:09:31;;;;;;;;;;;15.30;91.80;15.50;99485.00;;;;339782;28;82643;-95
2023/05/25 00:09:45;;;;;;;;;;;15.30;91.80;15.50;99482.00;;;;336519;28;89134;-94
2023/05/25 00:09:57;;;;;;;;;;;15.30;92.00;15.50;99479.00;;;;341298;28;82569;-95
2023/05/25 00:10:09;;;;;;;;;;;15.30;91.90;15.50;99488.00;;;;340654;28;90475;-95
2023/05/25 00:10:21;;;;;;;;;;;15.30;91.90;15.50;99484.00;;;;339765;28;82380;-95
2023/05/25 00:10:35;;;;;;;;;;;15.30;91.90;15.50;99493.00;;;;340429;28;87208;-96
2023/05/25 00:10:47;;;;;;;;;;;15.30;91.90;15.50;99487.00;;;;339580;28;82533;-95
2023/05/25 00:10:59;;;;;;;;;;;15.30;91.90;15.50;99484.00;;;;339115;28;90521;-95
2023/05/25 00:11:11;;;;;;;;;;;15.30;91.90;15.50;99496.00;;;;340987;28;82553;-95
2023/05/25 00:11:23;;;;;;;;;;;15.30;91.90;15.50;99484.00;;;;339028;28;89649;-95
2023/05/25 00:11:35;;;;;;;;;;;15.30;91.80;15.50;99484.00;;;;340991;28;82578;-95
2023/05/25 00:11:47;;;;;;;;;;;15.30;91.80;15.50;99488.00;;;;341862;28;90986;-95
2023/05/25 00:11:59;;;;;;;;;;;15.30;91.90;15.50;99486.00;;;;338232;28;82589;-95
2023/05/25 00:12:13;;;;;;;;;;;15.30;91.90;15.50;99487.00;;;;341612;28;90336;-94
2023/05/25 00:12:25;;;;;;;;;;;15.30;91.90;15.50;99495.00;;;;339455;28;82575;-95
2023/05/25 00:12:36;;;;;;;;;;;15.30;91.90;15.40;99493.00;;;;337855;28;90856;-95
2023/05/25 00:12:48;;;;;;;;;;;15.30;92.00;15.50;99487.00;;;;340947;28;82500;-96
2023/05/25 00:13:00;;;;;;;;;;;15.20;91.90;15.50;99491.00;;;;340448;28;89649;-96
2023/05/25 00:13:12;;;;;;;;;;;15.30;91.90;15.50;99479.00;;;;342254;28;82434;-95
2023/05/25 00:13:24;;;;;;;;;;;15.30;91.90;15.50;99472.00;;;;335259;29;91279;-95
2023/05/25 00:13:38;;;;;;;;;;;15.30;91.90;15.50;99483.00;;;;339565;28;82615;-95
2023/05/25 00:13:50;;;;;;;;;;;15.30;91.90;15.50;99489.00;;;;341116;28;89861;-96
2023/05/25 00:14:02;;;;;;;;;;;15.30;92.00;15.50;99484.00;;;;339650;28;82496;-95
2023/05/25 00:14:14;;;;;;;;;;;15.30;92.00;15.50;99492.00;;;;337917;28;88980;-95
2023/05/25 00:14:26;;;;;;;;;;;15.30;92.00;15.50;99488.00;;;;335603;29;82705;-95
2023/05/25 00:14:38;;;;;;;;;;;15.30;91.90;15.40;99481.00;;;;340562;28;88227;-95
2023/05/25 00:14:50;;;;;;;;;;;15.30;92.00;15.40;99490.00;;;;340869;28;82580;-96
2023/05/25 00:15:04;;;;;;;;;;;15.30;92.00;15.40;99475.00;;;;334018;29;90302;-96
2023/05/25 00:15:16;;;;;;;;;;;15.30;92.00;15.50;99487.00;;;;338187;28;82539;-96
2023/05/25 00:15:29;;;;;;;;;;;15.30;92.00;15.50;99488.00;;;;338945;28;89199;-95
2023/05/25 00:15:41;;;;;;;;;;;15.20;92.00;15.50;99484.00;;;;336988;28;82625;-96
2023/05/25 00:15:54;;;;;;;;;;;15.30;92.10;15.40;99482.00;;;;338922;28;89167;-96
2023/05/25 00:16:06;;;;;;;;;;;15.20;92.00;15.40;99483.00;;;;338413;28;82585;-96
2023/05/25 00:16:18;;;;;;;;;;;15.20;92.00;15.40;99479.00;;;;337476;28;90869;-95
2023/05/25 00:16:30;;;;;;;;;;;15.20;92.00;15.40;99477.00;;;;339571;28;82476;-96
2023/05/25 00:16:43;;;;;;;;;;;15.20;92.00;15.50;99480.00;;;;336642;28;89925;-95
2023/05/25 00:16:55;;;;;;;;;;;15.20;92.10;15.40;99484.00;;;;339257;28;82580;-95
2023/05/25 00:17:08;;;;;;;;;;;15.20;92.10;15.40;99486.00;;;;335090;29;89674;-95
2023/05/25 00:17:20;;;;;;;;;;;15.20;92.00;15.50;99486.00;;;;339268;28;82562;-95
2023/05/25 00:17:35;;;;;;;;;;;15.20;92.10;15.50;99478.00;;;;336330;28;91968;-95
2023/05/25 00:17:48;;;;;;;;;;;15.20;92.10;15.40;99487.00;;;;336948;28;82473;-95
2023/05/25 00:18:00;;;;;;;;;;;15.20;92.10;15.50;99484.00;;;;340389;28;88541;-95
2023/05/25 00:18:12;;;;;;;;;;;15.20;92.10;15.40;99480.00;;;;338223;28;82281;-95
2023/05/25 00:18:24;;;;;;;;;;;15.20;92.10;15.40;99482.00;;;;332367;29;90570;-95
2023/05/25 00:18:36;;;;;;;;;;;15.20;92.10;15.50;99488.00;;;;337927;28;82573;-96
2023/05/25 00:18:48;;;;;;;;;;;15.20;92.10;15.50;99480.00;;;;335118;29;89542;-95
2023/05/25 00:19:02;;;;;;;;;;;15.20;92.10;15.50;99486.00;;;;336943;28;82605;-95
2023/05/25 00:19:14;;;;;;;;;;;15.20;92.10;15.50;99481.00;;;;338934;28;87374;-96
2023/05/25 00:19:26;;;;;;;;;;;15.20;92.10;15.40;99471.00;;;;335611;29;82607;-95
2023/05/25 00:19:42;;;;;;;;;;;15.20;92.10;15.30;99477.00;;;;336578;28;89815;-95
2023/05/25 00:19:56;;;;;;;;;;;15.20;92.10;15.40;99480.00;;;;335373;28;82510;-95
2023/05/25 00:20:09;;;;;;;;;;;15.20;92.20;15.30;99482.00;;;;336580;28;89287;-95
2023/05/25 00:20:22;;;;;;;;;;;15.20;92.20;15.30;99482.00;;;;338032;28;82622;-96
2023/05/25 00:20:34;;;;;;;;;;;15.20;92.20;15.40;99477.00;;;;337482;28;89968;-95
2023/05/25 00:20:46;;;;;;;;;;;15.20;92.30;15.30;99474.00;;;;338221;28;82491;-96
2023/05/25 00:21:04;;;;;;;;;;;15.20;92.30;15.40;99483.00;;;;336388;28;89505;-95
2023/05/25 00:21:17;;;;;;;;;;;15.20;92.30;15.20;99480.00;;;;340546;28;82572;-95
2023/05/25 00:21:28;;;;;;;;;;;15.20;92.30;15.30;99479.00;;;;337681;28;89975;-95
2023/05/25 00:21:40;;;;;;;;;;;15.10;92.20;15.30;99479.00;;;;339304;28;82599;-96
2023/05/25 00:21:53;;;;;;;;;;;15.10;92.20;15.40;99480.00;;;;338798;28;89551;-95
2023/05/25 00:22:05;;;;;;;;;;;15.20;92.20;15.40;99482.00;;;;334150;28;82604;-95
2023/05/25 00:22:19;;;;;;;;;;;15.20;92.30;15.40;99481.00;;;;335095;29;90917;-95
2023/05/25 00:22:38;;;;;;;;;;;15.20;92.30;15.40;99479.00;;;;336766;28;82578;-96
2023/05/25 00:22:51;;;;;;;;;;;15.20;92.30;15.40;99485.00;;;;334876;29;90199;-96
2023/05/25 00:23:03;;;;;;;;;;;15.20;92.30;15.30;99484.00;;;;339262;28;82526;-95
2023/05/25 00:23:15;;;;;;;;;;;15.20;92.30;15.20;99480.00;;;;336322;28;90703;-96
2023/05/25 00:23:27;;;;;;;;;;;15.20;92.30;15.30;99479.00;;;;336836;28;82438;-95
2023/05/25 00:23:39;;;;;;;;;;;15.10;92.30;15.30;99478.00;;;;336307;28;89677;-95
2023/05/25 00:23:51;;;;;;;;;;;15.20;92.30;15.30;99479.00;;;;338141;28;82462;-96
2023/05/25 00:24:05;;;;;;;;;;;15.10;92.40;15.30;99477.00;;;;340427;28;90137;-94
2023/05/25 00:24:17;;;;;;;;;;;15.10;92.70;15.30;99473.00;;;;338046;28;82573;-95
2023/05/25 00:24:34;;;;;;;;;;;15.10;92.40;15.30;99483.00;;;;335019;29;90964;-95
2023/05/25 00:24:46;;;;;;;;;;;15.10;92.40;15.30;99477.00;;;;336971;28;82454;-96
2023/05/25 00:24:58;;;;;;;;;;;15.10;92.40;15.30;99477.00;;;;339044;28;91526;-95
2023/05/25 00:25:10;;;;;;;;;;;15.10;92.40;15.40;99477.00;;;;337931;28;82598;-95
2023/05/25 00:25:22;;;;;;;;;;;15.10;92.40;15.40;99482.00;;;;337521;28;89565;-96
2023/05/25 00:25:34;;;;;;;;;;;15.10;92.40;15.30;99486.00;;;;335306;29;82603;-95
2023/05/25 00:25:46;;;;;;;;;;;15.10;92.40;15.30;99484.00;;;;337626;28;89553;-95
2023/05/25 00:26:01;;;;;;;;;;;15.10;92.40;15.30;99481.00;;;;336804;28;82482;-94
2023/05/25 00:26:13;;;;;;;;;;;15.10;92.50;15.20;99472.00;;;;336301;28;90596;-94
2023/05/25 00:26:25;;;;;;;;;;;15.10;92.40;15.20;99488.00;;;;338110;28;83397;-95
2023/05/25 00:26:36;;;;;;;;;;;15.10;92.40;15.20;99476.00;;;;333832;29;90560;-96
2023/05/25 00:26:48;;;;;;;;;;;15.10;92.40;15.20;99488.00;;;;336622;28;82640;-96
2023/05/25 00:27:01;;;;;;;;;;;15.10;92.40;15.20;99479.00;;;;337626;28;91487;-94
2023/05/25 00:27:13;;;;;;;;;;;15.10;92.50;15.30;99486.00;;;;338128;28;82586;-96
2023/05/25 00:27:25;;;;;;;;;;;15.10;92.40;15.30;99490.00;;;;334990;29;89041;-95
2023/05/25 00:27:37;;;;;;;;;;;15.10;92.40;15.20;99488.00;;;;336474;28;82584;-96
2023/05/25 00:27:49;;;;;;;;;;;15.10;92.40;15.30;99489.00;;;;336089;28;89471;-95
2023/05/25 00:28:03;;;;;;;;;;;15.10;92.50;15.20;99484.00;;;;335337;28;83547;-95
2023/05/25 00:28:15;;;;;;;;;;;15.10;92.50;15.30;99490.00;;;;339084;28;87047;-95
2023/05/25 00:28:27;;;;;;;;;;;15.10;92.50;15.30;99483.00;;;;339410;28;82563;-96
2023/05/25 00:28:39;;;;;;;;;;;15.10;92.60;15.30;99484.00;;;;338844;28;89746;-94
2023/05/25 00:28:51;;;;;;;;;;;15.10;92.60;15.30;99487.00;;;;336828;28;82505;-96
2023/05/25 00:29:03;;;;;;;;;;;15.10;92.60;15.30;99492.00;;;;337674;28;90405;-95
2023/05/25 00:29:15;;;;;;;;;;;15.10;92.50;15.30;99493.00;;;;337916;28;82624;-95
2023/05/25 00:29:27;;;;;;;;;;;15.10;92.50;15.20;99488.00;;;;336354;28;90588;-96
2023/05/25 00:29:39;;;;;;;;;;;15.10;92.50;15.30;99496.00;;;;338193;28;82525;-96
2023/05/25 00:29:51;;;;;;;;;;;15.10;92.50;15.30;99491.00;;;;336314;28;90553;-95
2023/05/25 00:30:03;;;;;;;;;;;15.10;92.50;15.30;99490.00;;;;335612;29;82476;-95
2023/05/25 00:30:16;;;;;;;;;;;15.10;92.50;15.30;99488.00;;;;332447;29;90018;-95
2023/05/25 00:30:28;;;;;;;;;;;15.10;92.50;15.30;99483.00;;;;336533;28;82553;-95
2023/05/25 00:30:40;;;;;;;;;;;15.10;92.50;15.30;99482.00;;;;335046;29;90626;-95
2023/05/25 00:30:52;;;;;;;;;;;15.10;92.50;15.20;99487.00;;;;336749;28;83046;-95
2023/05/25 00:31:04;;;;;;;;;;;15.10;92.60;15.10;99493.00;;;;338971;28;90967;-95
2023/05/25 00:31:17;;;;;;;;;;;15.10;92.60;15.10;99486.00;;;;336674;28;82616;-95
2023/05/25 00:31:31;;;;;;;;;;;15.00;92.60;15.20;99486.00;;;;337833;28;90293;-95
2023/05/25 00:31:44;;;;;;;;;;;15.00;92.60;15.20;99498.00;;;;338352;28;82534;-95
2023/05/25 00:31:56;;;;;;;;;;;15.00;92.60;15.20;99493.00;;;;333897;29;90527;-96
2023/05/25 00:32:08;;;;;;;;;;;15.00;92.60;15.20;99493.00;;;;336843;28;82448;-96
2023/05/25 00:32:20;;;;;;;;;;;15.00;92.70;15.20;99486.00;;;;335194;29;89108;-95
2023/05/25 00:32:32;;;;;;;;;;;15.00;92.60;15.20;99493.00;;;;338034;28;82367;-96
2023/05/25 00:32:44;;;;;;;;;;;15.00;92.70;15.20;99488.00;;;;333678;29;88265;-95
2023/05/25 00:32:56;;;;;;;;;;;15.00;92.70;15.20;99486.00;;;;336654;28;82507;-95
2023/05/25 00:33:09;;;;;;;;;;;15.00;92.70;15.20;99495.00;;;;337428;28;90423;-96
2023/05/25 00:33:22;;;;;;;;;;;15.00;92.70;15.20;99491.00;;;;338155;28;82601;-96
2023/05/25 00:33:35;;;;;;;;;;;15.00;92.70;15.20;99483.00;;;;336722;28;89404;-95
2023/05/25 00:33:47;;;;;;;;;;;15.00;92.70;15.20;99492.00;;;;337958;28;82409;-94
2023/05/25 00:33:59;;;;;;;;;;;15.00;92.70;15.20;99488.00;;;;335041;29;89724;-96
2023/05/25 00:34:11;;;;;;;;;;;15.00;93.00;15.20;99489.00;;;;337922;28;82588;-95
2023/05/25 00:34:23;;;;;;;;;;;15.00;92.70;15.20;99488.00;;;;336421;28;86893;-96
2023/05/25 00:34:35;;;;;;;;;;;15.00;92.70;15.20;99488.00;;;;337900;28;82547;-96
2023/05/25 00:34:47;;;;;;;;;;;15.00;92.70;15.20;99492.00;;;;336187;28;88256;-95
2023/05/25 00:34:59;;;;;;;;;;;15.00;92.90;15.20;99486.00;;;;337986;28;82613;-96
2023/05/25 00:35:11;;;;;;;;;;;15.00;92.70;15.30;99488.00;;;;336127;28;90537;-95
2023/05/25 00:35:23;;;;;;;;;;;15.00;92.70;15.20;99492.00;;;;335516;29;82630;-95
2023/05/25 00:35:35;;;;;;;;;;;15.00;92.70;15.30;99482.00;;;;339011;28;90949;-95
2023/05/25 00:35:47;;;;;;;;;;;15.00;92.80;15.20;99483.00;;;;335391;28;82635;-96
2023/05/25 00:35:59;;;;;;;;;;;15.00;92.70;15.20;99474.00;;;;337478;28;87233;-95
2023/05/25 00:36:10;;;;;;;;;;;15.00;92.70;15.30;99481.00;;;;338050;28;82566;-96
2023/05/25 00:36:23;;;;;;;;;;;15.00;92.70;15.20;99484.00;;;;337624;28;88035;-95
2023/05/25 00:36:35;;;;;;;;;;;15.00;92.80;15.30;99483.00;;;;337817;28;82569;-95
2023/05/25 00:36:47;;;;;;;;;;;15.00;92.80;15.20;99485.00;;;;337521;28;89208;-95
2023/05/25 00:36:59;;;;;;;;;;;15.00;92.80;15.20;99484.00;;;;337999;28;82574;-96
2023/05/25 00:37:11;;;;;;;;;;;15.00;92.70;15.30;99484.00;;;;335869;28;90699;-96
2023/05/25 00:37:22;;;;;;;;;;;15.00;92.70;15.30;99487.00;;;;335544;28;82542;-96
2023/05/25 00:37:35;;;;;;;;;;;15.00;92.80;15.20;99494.00;;;;337615;28;88987;-96
2023/05/25 00:37:48;;;;;;;;;;;15.00;92.80;15.10;99492.00;;;;342132;28;82420;-95
2023/05/25 00:38:00;;;;;;;;;;;15.00;92.80;15.20;99485.00;;;;337732;28;89914;-96
2023/05/25 00:38:13;;;;;;;;;;;15.00;92.80;15.20;99476.00;;;;339180;28;82519;-96
2023/05/25 00:38:25;;;;;;;;;;;15.00;92.80;15.20;99477.00;;;;337881;28;89323;-95
2023/05/25 00:38:37;;;;;;;;;;;15.00;92.90;15.10;99483.00;;;;335371;29;82575;-96
2023/05/25 00:38:49;;;;;;;;;;;15.00;92.90;15.10;99488.00;;;;338803;28;89158;-95
2023/05/25 00:39:01;;;;;;;;;;;15.00;92.80;15.10;99477.00;;;;338027;28;82494;-95
2023/05/25 00:39:24;;;;;;;;;;;15.00;92.90;15.10;99486.00;;;;337618;28;91456;-95
2023/05/25 00:39:36;;;;;;;;;;;15.00;92.90;15.00;99471.00;;;;339151;28;82547;-94
2023/05/25 00:39:48;;;;;;;;;;;14.90;93.10;15.00;99486.00;;;;337694;28;91515;-95
2023/05/25 00:40:00;;;;;;;;;;;14.90;92.90;15.10;99482.00;;;;337746;28;83501;-95
2023/05/25 00:40:14;;;;;;;;;;;14.90;93.00;15.00;99483.00;;;;338881;28;88407;-95
2023/05/25 00:40:26;;;;;;;;;;;14.90;93.00;15.00;99487.00;;;;338067;28;83331;-95
2023/05/25 00:40:41;;;;;;;;;;;14.90;93.00;15.00;99477.00;;;;338935;28;87329;-95
2023/05/25 00:40:55;;;;;;;;;;;14.90;93.10;15.10;99484.00;;;;336729;28;82570;-94
2023/05/25 00:41:06;;;;;;;;;;;14.90;93.10;15.10;99481.00;;;;337741;28;89262;-94
2023/05/25 00:41:19;;;;;;;;;;;14.80;93.10;15.00;99480.00;;;;340932;28;82544;-94
2023/05/25 00:41:31;;;;;;;;;;;14.90;93.10;15.10;99481.00;;;;336160;28;90490;-95
2023/05/25 00:41:43;;;;;;;;;;;14.80;93.10;15.00;99486.00;;;;336882;28;82601;-96
2023/05/25 00:41:55;;;;;;;;;;;14.80;93.20;15.10;99477.00;;;;337588;28;89671;-95
2023/05/25 00:42:07;;;;;;;;;;;14.90;93.20;15.10;99483.00;;;;338108;28;82588;-95
2023/05/25 00:42:19;;;;;;;;;;;14.80;93.20;15.10;99481.00;;;;341847;28;90752;-94
2023/05/25 00:42:31;;;;;;;;;;;14.80;93.20;15.10;99481.00;;;;339575;28;82581;-95
2023/05/25 00:42:43;;;;;;;;;;;14.80;93.20;15.00;99479.00;;;;338974;28;89511;-95
2023/05/25 00:42:55;;;;;;;;;;;14.80;93.20;15.10;99481.00;;;;340854;28;82579;-95
2023/05/25 00:43:08;;;;;;;;;;;14.80;93.10;15.00;99482.00;;;;336573;28;88401;-95
2023/05/25 00:43:20;;;;;;;;;;;14.80;93.10;15.00;99477.00;;;;340603;28;83491;-95
2023/05/25 00:43:32;;;;;;;;;;;14.80;93.10;14.90;99480.00;;;;337752;28;89808;-94
2023/05/25 00:43:45;;;;;;;;;;;14.80;93.00;15.00;99478.00;;;;337818;28;82624;-95
2023/05/25 00:43:57;;;;;;;;;;;14.80;93.10;15.00;99480.00;;;;337626;28;90127;-95
2023/05/25 00:44:10;;;;;;;;;;;14.80;93.10;15.00;99485.00;;;;339685;28;82397;-95
2023/05/25 00:44:22;;;;;;;;;;;14.80;93.20;15.00;99488.00;;;;337975;28;90160;-95
2023/05/25 00:44:34;;;;;;;;;;;14.80;93.20;15.00;99482.00;;;;337050;28;83144;-95
2023/05/25 00:44:47;;;;;;;;;;;14.80;93.20;15.00;99482.00;;;;339141;28;90793;-95
2023/05/25 00:44:59;;;;;;;;;;;14.80;93.20;15.00;99481.00;;;;341892;28;82507;-95
2023/05/25 00:45:11;;;;;;;;;;;14.80;93.30;15.00;99483.00;;;;338979;28;90591;-94
2023/05/25 00:45:23;;;;;;;;;;;14.80;93.20;15.00;99470.00;;;;340484;28;82652;-95
2023/05/25 00:45:34;;;;;;;;;;;14.80;93.30;15.00;99476.00;;;;338937;28;90912;-95
2023/05/25 00:45:46;;;;;;;;;;;14.80;93.20;15.00;99475.00;;;;338185;28;82553;-94
2023/05/25 00:45:58;;;;;;;;;;;14.80;93.20;15.00;99481.00;;;;336340;28;90382;-95
2023/05/25 00:46:10;;;;;;;;;;;14.80;93.20;15.00;99477.00;;;;337842;28;83444;-95
2023/05/25 00:46:22;;;;;;;;;;;14.80;93.30;15.00;99468.00;;;;337708;28;90902;-95
2023/05/25 00:46:34;;;;;;;;;;;14.80;93.30;15.00;99482.00;;;;336828;28;82517;-95
2023/05/25 00:46:47;;;;;;;;;;;14.80;93.30;15.00;99480.00;;;;336365;28;90848;-96
2023/05/25 00:47:03;;;;;;;;;;;14.80;93.40;14.90;99481.00;;;;339265;28;82582;-95
2023/05/25 00:47:16;;;;;;;;;;;14.70;93.40;15.00;99474.00;;;;340178;28;89066;-96
2023/05/25 00:47:28;;;;;;;;;;;14.70;93.30;14.90;99470.00;;;;336733;28;82563;-95
2023/05/25 00:47:40;;;;;;;;;;;14.70;93.30;14.90;99469.00;;;;340338;28;90841;-95
2023/05/25 00:47:52;;;;;;;;;;;14.70;93.30;15.00;99480.00;;;;339340;28;82514;-96
2023/05/25 00:48:04;;;;;;;;;;;14.70;93.30;15.00;99468.00;;;;337666;28;90226;-96
2023/05/25 00:48:17;;;;;;;;;;;14.70;93.30;15.00;99473.00;;;;340573;28;82526;-96
2023/05/25 00:48:28;;;;;;;;;;;14.80;93.40;15.00;99475.00;;;;337382;28;89543;-95
2023/05/25 00:48:41;;;;;;;;;;;14.70;93.30;15.00;99472.00;;;;336714;28;82639;-95
2023/05/25 00:48:53;;;;;;;;;;;14.70;93.30;15.00;99481.00;;;;334802;29;88956;-95
2023/05/25 00:49:05;;;;;;;;;;;14.70;93.30;15.00;99473.00;;;;339321;28;82560;-94
2023/05/25 00:49:18;;;;;;;;;;;14.70;93.30;14.90;99481.00;;;;340231;28;89116;-94
2023/05/25 00:49:32;;;;;;;;;;;14.70;93.30;15.00;99476.00;;;;338033;28;82581;-95
2023/05/25 00:49:44;;;;;;;;;;;14.70;93.30;14.90;99471.00;;;;338734;28;90069;-96
2023/05/25 00:49:56;;;;;;;;;;;14.70;93.30;14.80;99475.00;;;;337647;28;82566;-95
2023/05/25 00:50:09;;;;;;;;;;;14.70;93.40;14.90;99483.00;;;;339077;28;90612;-95
2023/05/25 00:50:35;;;;;;;;;;;14.70;93.30;14.90;99473.00;;;;340681;28;82578;-95
2023/05/25 00:50:47;;;;;;;;;;;14.70;93.40;14.90;99470.00;;;;336493;28;90696;-95
2023/05/25 00:50:59;;;;;;;;;;;14.70;93.40;14.90;99471.00;;;;335605;29;82379;-95
2023/05/25 00:51:13;;;;;;;;;;;14.70;93.50;14.90;99480.00;;;;339062;28;90475;-95
2023/05/25 00:51:26;;;;;;;;;;;14.70;93.50;14.80;99471.00;;;;336757;28;82686;-95
2023/05/25 00:51:38;;;;;;;;;;;14.70;93.50;14.90;99468.00;;;;339019;28;88343;-96
2023/05/25 00:51:50;;;;;;;;;;;14.70;93.50;14.90;99479.00;;;;338058;28;82539;-95
2023/05/25 00:52:02;;;;;;;;;;;14.70;93.50;14.80;99480.00;;;;337709;28;90018;-95
2023/05/25 00:52:14;;;;;;;;;;;14.70;93.50;14.90;99475.00;;;;337941;28;82532;-95
2023/05/25 00:52:27;;;;;;;;;;;14.70;93.40;14.90;99479.00;;;;340377;28;89573;-95
2023/05/25 00:52:39;;;;;;;;;;;14.70;93.50;14.90;99476.00;;;;339411;28;82567;-95
2023/05/25 00:52:50;;;;;;;;;;;14.70;93.50;14.90;99472.00;;;;338955;28;90533;-95
2023/05/25 00:53:05;;;;;;;;;;;14.70;93.50;14.90;99472.00;;;;340708;28;82599;-95
2023/05/25 00:53:17;;;;;;;;;;;14.70;93.60;14.90;99470.00;;;;336426;28;89705;-94
2023/05/25 00:53:28;;;;;;;;;;;14.70;93.60;14.90;99474.00;;;;339556;28;82532;-95
2023/05/25 00:53:40;;;;;;;;;;;14.70;93.50;14.90;99480.00;;;;339368;28;89771;-95
2023/05/25 00:53:52;;;;;;;;;;;14.70;93.60;14.90;99480.00;;;;336850;28;83436;-95
2023/05/25 00:54:04;;;;;;;;;;;14.70;93.60;14.90;99474.00;;;;336327;28;90911;-95
2023/05/25 00:54:17;;;;;;;;;;;14.70;93.60;14.80;99472.00;;;;339616;28;82543;-95
2023/05/25 00:54:29;;;;;;;;;;;14.70;93.60;14.80;99481.00;;;;340306;28;89033;-96
2023/05/25 00:54:41;;;;;;;;;;;14.60;93.50;14.80;99481.00;;;;338306;28;82416;-94
2023/05/25 00:54:53;;;;;;;;;;;14.60;93.50;14.90;99478.00;;;;335057;28;89688;-95
2023/05/25 00:55:06;;;;;;;;;;;14.60;93.60;14.80;99475.00;;;;339665;28;82327;-94
2023/05/25 00:55:18;;;;;;;;;;;14.60;93.70;14.80;99474.00;;;;340681;28;90052;-95
2023/05/25 00:55:30;;;;;;;;;;;14.60;93.60;14.90;99471.00;;;;335790;29;82449;-95
2023/05/25 00:55:54;;;;;;;;;;;14.60;93.60;14.80;99481.00;;;;337978;28;90831;-95
2023/05/25 00:56:23;;;;;;;;;;;14.60;93.60;14.90;99482.00;;;;342496;28;82495;-94
2023/05/25 00:56:37;;;;;;;;;;;14.60;93.60;14.90;99471.00;;;;338610;28;88091;-95
2023/05/25 00:56:54;;;;;;;;;;;14.60;93.70;14.90;99479.00;;;;340138;28;82377;-95
2023/05/25 00:57:06;;;;;;;;;;;14.60;93.70;14.90;99483.00;;;;337855;28;89800;-95
2023/05/25 00:57:21;;;;;;;;;;;14.60;93.70;14.90;99485.00;;;;342472;28;82562;-94
2023/05/25 00:57:36;;;;;;;;;;;14.60;93.70;14.90;99470.00;;;;339301;28;88342;-95
2023/05/25 00:57:48;;;;;;;;;;;14.60;93.70;14.80;99475.00;;;;339893;28;82516;-95
2023/05/25 00:58:00;;;;;;;;;;;14.60;93.70;14.90;99481.00;;;;341660;28;89380;-95
2023/05/25 00:58:12;;;;;;;;;;;14.60;93.70;14.90;99476.00;;;;339914;28;82568;-94
2023/05/25 00:58:26;;;;;;;;;;;14.60;93.70;14.90;99479.00;;;;340519;28;89696;-95
2023/05/25 00:58:38;;;;;;;;;;;14.60;93.70;14.80;99482.00;;;;336765;28;82579;-95
2023/05/25 00:58:52;;;;;;;;;;;14.60;93.80;14.80;99477.00;;;;339000;28;91198;-95
2023/05/25 00:59:05;;;;;;;;;;;14.60;93.80;14.80;99470.00;;;;337876;28;82596;-96
2023/05/25 00:59:32;;;;;;;;;;;14.60;93.80;14.80;99483.00;;;;337458;28;89706;-95
2023/05/25 00:59:45;;;;;;;;;;;14.60;93.80;14.90;99480.00;;;;340627;28;82451;-95
2023/05/25 00:59:57;;;;;;;;;;;14.60;93.90;14.90;99485.00;;;;338962;28;87330;-95
2023/05/25 01:00:10;;;;;;;;;;;14.60;93.80;14.90;99477.00;;;;336766;28;82502;-96
2023/05/25 01:00:22;;;;;;;;;;;14.60;93.80;14.90;99482.00;;;;335142;29;90678;-96
2023/05/25 01:00:35;;;;;;;;;;;14.60;93.80;14.90;99479.00;;;;337020;28;82560;-96
2023/05/25 01:01:16;;;;;;;;;;;14.60;93.80;14.80;99477.00;;;;340250;28;89946;-96
2023/05/25 01:01:32;;;;;;;;;;;14.60;94.00;14.90;99471.00;;;;335576;29;82408;-95
2023/05/25 01:01:44;;;;;;;;;;;14.60;93.90;14.80;99472.00;;;;337547;28;88242;-95
2023/05/25 01:01:56;;;;;;;;;;;14.60;94.00;14.90;99471.00;;;;338187;28;82466;-95
2023/05/25 01:02:12;;;;;;;;;;;14.60;93.90;14.90;99468.00;;;;339001;28;90312;-95
2023/05/25 01:02:24;;;;;;;;;;;14.60;93.90;14.90;99474.00;;;;340745;28;82623;-95
2023/05/25 01:02:37;;;;;;;;;;;14.60;93.80;14.90;99468.00;;;;335084;28;89382;-95
2023/05/25 01:02:51;;;;;;;;;;;14.60;93.90;14.80;99478.00;;;;339203;28;82462;-96
2023/05/25 01:03:10;;;;;;;;;;;14.60;93.90;14.80;99469.00;;;;340281;28;90100;-95
2023/05/25 01:03:26;;;;;;;;;;;14.60;93.80;14.80;99470.00;;;;338005;28;82512;-95
2023/05/25 01:03:39;;;;;;;;;;;14.60;93.90;14.80;99471.00;;;;338901;28;89384;-95
2023/05/25 01:03:52;;;;;;;;;;;14.60;93.90;14.80;99468.00;;;;337938;28;82636;-96
2023/05/25 01:04:08;;;;;;;;;;;14.60;94.00;14.80;99468.00;;;;340068;28;89458;-96
2023/05/25 01:04:20;;;;;;;;;;;14.60;94.00;14.80;99478.00;;;;339444;28;82442;-96